createdAt,value
2018-01-26T00:00:41.944Z,9.88
2018-01-26T00:03:09.337Z,9.82
2018-01-26T00:05:36.751Z,9.86
2018-01-26T00:08:04.156Z,10.00
2018-01-26T00:10:31.556Z,10.01
2018-01-26T00:12:58.965Z,10.10
2018-01-26T00:15:26.358Z,10.20
2018-01-26T00:17:53.882Z,10.00
2018-01-26T00:20:21.277Z,10.02
2018-01-26T00:22:48.949Z,9.96
2018-01-26T00:25:16.331Z,9.82
2018-01-26T00:27:43.745Z,9.93
2018-01-26T00:30:11.674Z,9.89
2018-01-26T00:32:39.088Z,9.87
2018-01-26T00:35:06.588Z,9.86
2018-01-26T00:37:33.989Z,9.91
2018-01-26T00:40:01.454Z,9.80
2018-01-26T00:42:28.848Z,9.92
2018-01-26T00:44:56.867Z,9.93
2018-01-26T00:47:24.277Z,9.94
2018-01-26T00:49:52.438Z,9.92
2018-01-26T00:52:20.083Z,9.94
2018-01-26T00:54:47.473Z,9.84
2018-01-26T00:57:14.869Z,9.80
2018-01-26T00:59:42.265Z,9.80
2018-01-26T01:02:09.666Z,9.67
2018-01-26T01:04:37.091Z,9.62
2018-01-26T01:07:04.483Z,9.74
2018-01-26T01:09:31.880Z,9.62
2018-01-26T01:11:59.283Z,9.59
2018-01-26T01:14:26.692Z,9.48
2018-01-26T01:16:54.461Z,9.43
2018-01-26T01:19:21.865Z,9.43
2018-01-26T01:21:49.260Z,9.36
2018-01-26T01:24:16.660Z,9.43
2018-01-26T01:26:44.057Z,9.37
2018-01-26T01:29:11.501Z,9.43
2018-01-26T01:31:38.892Z,9.52
2018-01-26T01:34:06.312Z,9.40
2018-01-26T01:36:33.722Z,9.36
2018-01-26T01:39:01.114Z,9.24
2018-01-26T01:41:29.192Z,9.29
2018-01-26T01:43:56.709Z,9.23
2018-01-26T01:46:24.107Z,9.25
2018-01-26T01:49:03.323Z,9.39
2018-01-26T01:51:30.716Z,9.33
2018-01-26T01:53:58.128Z,9.40
2018-01-26T01:56:25.593Z,9.31
2018-01-26T01:58:53.005Z,9.35
2018-01-26T02:01:20.404Z,9.34
2018-01-26T02:03:47.809Z,9.24
2018-01-26T02:06:15.216Z,9.46
2018-01-26T02:08:42.620Z,9.30
2018-01-26T02:11:10.026Z,9.29
2018-01-26T02:13:37.437Z,9.26
2018-01-26T02:16:05.344Z,9.36
2018-01-26T02:18:32.762Z,9.21
2018-01-26T02:21:00.517Z,9.42
2018-01-26T02:23:27.930Z,9.52
2018-01-26T02:25:55.325Z,9.59
2018-01-26T02:28:22.725Z,9.38
2018-01-26T02:30:50.136Z,9.43
2018-01-26T02:33:17.525Z,9.42
2018-01-26T02:35:44.952Z,9.40
2018-01-26T02:38:13.271Z,9.30
2018-01-26T02:40:40.697Z,9.46
2018-01-26T02:43:08.096Z,9.34
2018-01-26T02:45:35.488Z,9.35
2018-01-26T02:48:02.906Z,9.31
2018-01-26T02:50:30.314Z,9.14
2018-01-26T02:52:59.423Z,9.04
2018-01-26T02:55:27.335Z,9.16
2018-01-26T02:57:55.613Z,9.11
2018-01-26T03:00:23.800Z,8.85
2018-01-26T03:02:51.205Z,8.89
2018-01-26T03:05:18.620Z,8.86
2018-01-26T03:07:46.088Z,8.82
2018-01-26T03:10:13.504Z,8.98
2018-01-26T03:12:40.906Z,8.83
2018-01-26T03:15:08.323Z,8.81
2018-01-26T03:17:35.726Z,8.97
2018-01-26T03:20:03.128Z,9.03
2018-01-26T03:22:30.580Z,9.06
2018-01-26T03:24:58.452Z,9.06
2018-01-26T03:27:25.852Z,9.10
2018-01-26T03:29:53.272Z,9.09
2018-01-26T03:32:20.696Z,8.99
2018-01-26T03:34:48.093Z,8.91
2018-01-26T03:37:15.498Z,8.99
2018-01-26T03:39:42.925Z,8.93
2018-01-26T03:42:10.327Z,8.74
2018-01-26T03:44:37.736Z,8.69
2018-01-26T03:47:05.147Z,8.84
2018-01-26T03:49:32.559Z,8.72
2018-01-26T03:51:59.976Z,8.54
2018-01-26T03:54:27.444Z,8.67
2018-01-26T03:56:54.852Z,8.62
2018-01-26T03:59:22.255Z,8.71
2018-01-26T04:01:50.048Z,8.69
2018-01-26T04:04:17.466Z,8.66
2018-01-26T04:06:45.659Z,8.67
2018-01-26T04:09:13.086Z,8.58
2018-01-26T04:11:40.485Z,8.66
2018-01-26T04:14:07.890Z,8.49
2018-01-26T04:16:35.562Z,8.81
2018-01-26T04:19:03.081Z,8.97
2018-01-26T04:21:33.539Z,8.92
2018-01-26T04:24:00.941Z,8.76
2018-01-26T04:26:28.355Z,8.60
2018-01-26T04:28:55.758Z,8.43
2018-01-26T04:31:23.164Z,8.54
2018-01-26T04:33:50.644Z,8.57
2018-01-26T04:36:18.044Z,8.63
2018-01-26T04:38:45.455Z,8.66
2018-01-26T04:41:12.866Z,8.55
2018-01-26T04:43:40.267Z,8.70
2018-01-26T04:46:07.684Z,8.58
2018-01-26T04:48:35.084Z,8.34
2018-01-26T04:51:02.507Z,8.60
2018-01-26T04:53:29.909Z,8.69
2018-01-26T04:55:57.315Z,8.50
2018-01-26T04:58:24.715Z,8.41
2018-01-26T05:00:52.132Z,8.20
2018-01-26T19:57:33.351Z,6.79
2018-01-26T20:00:00.800Z,6.93
2018-01-26T20:02:28.205Z,6.89
2018-01-26T20:05:12.995Z,6.98
2018-01-26T20:07:43.329Z,6.70
2018-01-26T20:10:10.730Z,6.65
2018-01-26T20:12:43.842Z,6.91
2018-01-26T20:15:11.299Z,6.98
2018-01-26T20:17:38.753Z,6.85
2018-01-26T20:20:06.191Z,6.94
2018-01-26T20:22:33.652Z,7.02
2018-01-26T20:42:36.231Z,6.58
2018-01-26T20:45:03.620Z,6.71
2018-01-26T20:47:31.070Z,6.85
2018-01-26T20:49:58.516Z,6.80
2018-01-26T20:52:25.970Z,6.89
2018-01-26T20:54:53.420Z,7.10
2018-01-26T20:57:20.868Z,7.13
2018-01-26T20:59:48.307Z,7.13
2018-01-26T21:02:15.701Z,6.95
2018-01-26T21:04:43.167Z,6.91
2018-01-26T21:07:10.616Z,6.79
2018-01-26T21:09:38.060Z,7.05
2018-01-26T21:12:05.500Z,7.08
2018-01-26T21:14:32.957Z,7.18
2018-01-26T21:17:00.353Z,6.89
2018-01-26T21:19:28.451Z,7.02
2018-01-26T21:21:55.895Z,6.81
2018-01-26T21:24:23.339Z,6.59
2018-01-26T21:26:50.778Z,6.84
2018-01-26T21:29:18.228Z,6.99
2018-01-26T21:31:45.663Z,7.09
2018-01-26T21:34:13.123Z,6.78
2018-01-26T21:36:40.575Z,7.05
2018-01-26T21:39:08.028Z,7.04
2018-01-26T21:41:35.489Z,6.73
2018-01-26T21:44:02.924Z,6.77
2018-01-26T21:46:30.367Z,6.91
2018-01-26T21:48:57.776Z,6.79
2018-01-26T21:51:25.217Z,6.78
2018-01-26T21:53:52.676Z,6.86
2018-01-26T21:56:20.132Z,6.95
2018-01-26T21:58:47.567Z,6.80
2018-01-26T22:02:40.845Z,6.90
2018-01-26T22:05:13.775Z,7.20
2018-01-26T22:07:41.245Z,7.07
2018-01-26T22:10:09.411Z,6.92
2018-01-26T22:12:36.869Z,7.09
2018-01-26T22:15:04.319Z,7.15
2018-01-26T22:17:31.765Z,7.05
2018-01-26T22:19:59.212Z,7.15
2018-01-26T22:22:26.654Z,7.34
2018-01-26T22:24:54.108Z,7.31
2018-01-26T22:27:21.547Z,7.25
2018-01-26T22:29:49.008Z,7.21
2018-01-26T22:32:16.463Z,7.08
2018-01-26T22:34:43.911Z,7.29
2018-01-26T22:37:11.366Z,7.22
2018-01-26T22:39:38.815Z,7.25
2018-01-26T22:42:06.272Z,7.00
2018-01-26T22:44:33.675Z,6.86
2018-01-26T22:47:01.136Z,6.69
2018-01-26T22:49:28.696Z,7.11
2018-01-26T22:51:56.098Z,7.10
2018-01-26T22:54:23.512Z,7.09
2018-01-26T22:56:50.923Z,6.91
2018-01-26T22:59:18.375Z,6.91
2018-01-26T23:01:45.826Z,6.74
2018-01-26T23:04:13.268Z,6.78
2018-01-26T23:06:40.756Z,6.57
2018-01-26T23:09:08.173Z,6.58
2018-01-26T23:11:35.567Z,6.55
2018-01-26T23:14:03.056Z,6.64
2018-01-26T23:16:30.464Z,6.75
2018-01-26T23:18:57.870Z,6.71
2018-01-26T23:21:25.334Z,6.81
2018-01-26T23:23:52.730Z,6.70
2018-01-26T23:26:20.191Z,6.48
2018-01-26T23:28:47.584Z,6.56
2018-01-26T23:31:15.006Z,6.56
2018-01-26T23:33:42.418Z,6.70
2018-01-26T23:36:09.831Z,6.79
2018-01-26T23:38:38.129Z,6.77
2018-01-26T23:41:05.528Z,6.88
2018-01-26T23:43:32.943Z,6.86
2018-01-26T23:46:00.362Z,6.70
2018-01-26T23:48:27.814Z,6.59
2018-01-26T23:50:55.212Z,6.63
2018-01-26T23:53:22.658Z,6.64
2018-01-26T23:55:50.060Z,6.63
2018-01-26T23:58:17.471Z,6.54
